Terminal Aerodrome Forecast
Issued by NWS Cleveland, OH

Home | Current Version | Previous Version | Text Only | Print | Product List | Glossary On
Versions: 1 2 3 4 5 6 7 8 9 10 11 12 13 14 15 16 17 18 19 20 21 22 23 24 25 26 27 28 29 30 31 32 33
000
FTUS41 KCLE 291700
TAFCLE
TAF
KCLE 291722Z 2918/3024 31005KT P6SM BKN050 OVC060
     FM300100 26008KT P6SM VCSH BKN045
     FM300700 22006KT P6SM SCT030 BKN120
     FM301600 28008KT P6SM VCSH BKN035 OVC100=

USA.gov is the U.S. government's official web portal to all federal, state and local government web resources and services.